Main page
METAR-TAF:

METAR-TAF

Airports :

Djibouti–Ambouli International Airport

Djibouti, Djibouti

latitude: 11-33N, longitude: 043-10E, elevation: 49 m

Current weather observation

The report was made 18 hours and 6 minutes ago, at 11:00 UTC
Wind 10 kt from the West/Northwest
Temperature 44°C
Humidity 29%
Pressure 1002 hPa
Visibility: 6000 m
Few clouds at a height of 13300 ft
haze

METAR: HDAM 191100Z 30010KT 6000 HZ FEW133 44/22 Q1002

Time: 08:06 (05:06 UTC)

Forecast

The report was made 6 hours and 6 minutes ago, at 23:00 UTC
Forecast valid from 20 at 00 UTC to 20 at 24 UTC
Wind 3 kt from variable directions
Visibility: 8000 m
haze
Becoming
from 20 at 06 UTC to 20 at 12 UTC
Wind 14 kt from the West
Visibility: 6000 m
Becoming
from 20 at 12 UTC to 20 at 15 UTC
Wind 10 kt from the East
Few clouds at a height of 3000 ft, Cumulonimbus.

TAF: HDAM 192300Z 2000/2024 VRB03KT 8000 HZ NSC BECMG 2006/2012 28014KT 6000 HZ/SA BECMG 2012/2015 08010KT FEW030CB

Weather observations and forecasts of more than 4000 airports (METAR and TAF reports).

The available stations are represented by yellow and red dots on the map.

Hover mouse over dot to see the name of the station.

Then click to see weather observations and forecasts.

To change the map : click on the green buttons with a black cross to zoom in, on the green button with a dash to zoom out, or on the green arrows for adjacent maps.


METAR-TAF: